createdAt,value
2018-08-18T00:00:18.383Z,101508.22
2018-08-18T00:02:46.884Z,101509.48
2018-08-18T00:05:16.159Z,101511.77
2018-08-18T00:07:46.279Z,101504.89
2018-08-18T00:10:18.372Z,101506.24
2018-08-18T00:12:47.142Z,101509.19
2018-08-18T00:15:21.755Z,101519.67
2018-08-18T00:17:50.401Z,101518.39
2018-08-18T00:20:23.142Z,101519.34
2018-08-18T00:22:52.789Z,101518.63
2018-08-18T00:25:29.367Z,101519.16
2018-08-18T00:28:04.102Z,101525.39
2018-08-18T00:31:35.921Z,101528.52
2018-08-18T00:34:05.578Z,101523.86
2018-08-18T00:36:35.438Z,101522.99
2018-08-18T00:39:04.639Z,101521.84
2018-08-18T00:41:33.097Z,101522.71
2018-08-18T00:44:01.557Z,101518.75
2018-08-18T00:46:31.540Z,101517.89
2018-08-18T00:49:01.095Z,101516.72
2018-08-18T00:51:35.982Z,101518.91
2018-08-18T00:54:07.533Z,101520.20
2018-08-18T00:56:38.328Z,101523.44
2018-08-18T00:59:06.852Z,101524.03
2018-08-18T01:01:35.289Z,101525.35
2018-08-18T01:04:10.680Z,101523.66
2018-08-18T01:06:41.817Z,101523.32
2018-08-18T01:09:12.228Z,101525.01
2018-08-18T01:11:40.848Z,101525.09
2018-08-18T01:14:16.230Z,101524.80
2018-08-18T01:16:49.004Z,101522.27
2018-08-18T01:19:18.547Z,101533.56
2018-08-18T01:21:50.336Z,101532.23
2018-08-18T01:24:19.024Z,101537.39
2018-08-18T01:26:48.843Z,101544.78
2018-08-18T01:29:18.635Z,101546.16
2018-08-18T01:31:48.357Z,101539.38
2018-08-18T01:34:16.901Z,101549.00
2018-08-18T01:36:45.476Z,101542.58
2018-08-18T01:39:15.335Z,101542.70
2018-08-18T01:41:44.639Z,101540.69
2018-08-18T01:44:19.406Z,101550.28
2018-08-18T01:46:51.138Z,101556.02
2018-08-18T01:49:29.698Z,101560.03
2018-08-18T01:51:59.933Z,101558.38
2018-08-18T01:54:28.452Z,101560.58
2018-08-18T01:57:08.838Z,101560.62
2018-08-18T01:59:38.550Z,101561.94
2018-08-18T02:02:19.810Z,101561.08
2018-08-18T02:04:49.094Z,101559.39
2018-08-18T02:07:25.426Z,101563.44
2018-08-18T02:09:54.492Z,101556.16
2018-08-18T02:12:24.125Z,101561.00
2018-08-18T02:14:53.276Z,101560.20
2018-08-18T02:17:29.589Z,101561.12
2018-08-18T02:19:58.421Z,101564.31
2018-08-18T02:22:28.494Z,101560.28
2018-08-18T02:24:57.241Z,101562.79
2018-08-18T02:27:26.146Z,101565.09
2018-08-18T02:30:22.020Z,101569.52
2018-08-18T02:32:50.558Z,101560.25
2018-08-18T02:35:19.230Z,101568.56
2018-08-18T02:37:47.808Z,101564.66
2018-08-18T02:40:17.945Z,101564.36
2018-08-18T02:42:47.589Z,101560.97
2018-08-18T02:45:16.809Z,101561.39
2018-08-18T02:47:46.191Z,101567.09
2018-08-18T02:50:15.224Z,101564.12
2018-08-18T02:52:43.924Z,101560.30
2018-08-18T02:55:13.070Z,101559.98
2018-08-18T02:57:42.767Z,101559.13
2018-08-18T03:00:26.922Z,101556.09
2018-08-18T03:02:56.396Z,101553.56
2018-08-18T03:05:24.989Z,101554.05
2018-08-18T03:07:53.636Z,101553.50
2018-08-18T03:10:24.260Z,101561.22
2018-08-18T03:12:59.002Z,101561.30
2018-08-18T03:16:04.639Z,101562.15
2018-08-18T03:18:53.660Z,101568.34
2018-08-18T03:21:28.516Z,101568.80
2018-08-18T03:24:08.209Z,101568.31
2018-08-18T03:26:53.430Z,101571.84
2018-08-18T03:29:26.121Z,101573.52
2018-08-18T03:31:55.744Z,101570.92
2018-08-18T03:34:25.347Z,101568.31
2018-08-18T03:36:56.059Z,101570.05
2018-08-18T03:39:29.688Z,101568.80
2018-08-18T03:42:00.947Z,101573.13
2018-08-18T03:44:29.448Z,101563.14
2018-08-18T03:46:57.940Z,101560.56
2018-08-18T03:49:26.387Z,101567.08
2018-08-18T03:51:56.102Z,101564.05
2018-08-18T03:54:24.559Z,101571.05
2018-08-18T03:56:54.006Z,101571.97
2018-08-18T03:59:22.829Z,101575.03
2018-08-18T04:01:55.865Z,101571.09
2018-08-18T04:04:27.773Z,101572.78
2018-08-18T04:06:58.073Z,101578.44
2018-08-18T04:09:28.573Z,101580.23
2018-08-18T04:11:58.592Z,101577.65
2018-08-18T04:14:44.622Z,101580.36
2018-08-18T04:17:25.233Z,101584.20
2018-08-18T04:19:53.833Z,101584.70
2018-08-18T04:22:23.373Z,101581.23
2018-08-18T04:24:51.898Z,101589.52
2018-08-18T04:27:37.798Z,101587.34
2018-08-18T04:30:10.496Z,101581.72
2018-08-18T04:32:50.268Z,101592.59
2018-08-18T04:35:20.383Z,101589.58
2018-08-18T04:37:49.242Z,101595.63
2018-08-18T04:40:17.956Z,101587.84
2018-08-18T04:42:46.966Z,101590.05
2018-08-18T04:45:16.803Z,101592.66
2018-08-18T04:47:45.258Z,101590.05
2018-08-18T04:50:14.196Z,101596.06
2018-08-18T04:52:42.927Z,101596.92
2018-08-18T04:55:12.812Z,101588.28
2018-08-18T04:57:41.328Z,101580.42
2018-08-18T05:00:11.988Z,101590.75
2018-08-18T05:02:45.679Z,101588.11
2018-08-18T05:05:14.499Z,101592.86
2018-08-18T05:07:47.262Z,101595.50
2018-08-18T05:10:16.983Z,101595.02
2018-08-18T05:12:45.683Z,101598.06
2018-08-18T05:15:14.793Z,101597.13
2018-08-18T05:17:43.625Z,101594.96
2018-08-18T05:20:19.976Z,101603.56
2018-08-18T05:22:48.539Z,101603.14
2018-08-18T05:25:18.164Z,101603.13
2018-08-18T05:27:47.242Z,101605.67
2018-08-18T05:30:16.001Z,101606.92
2018-08-18T05:32:44.748Z,101605.23
2018-08-18T05:35:13.870Z,101611.20
2018-08-18T05:37:42.856Z,101613.34
2018-08-18T05:40:11.425Z,101609.86
2018-08-18T05:42:40.169Z,101609.36
2018-08-18T05:45:23.289Z,101610.06
2018-08-18T05:47:53.384Z,101613.03
2018-08-18T05:50:23.970Z,101608.69
2018-08-18T05:52:55.617Z,101604.73
2018-08-18T05:55:24.834Z,101605.91
2018-08-18T05:57:53.315Z,101599.75
2018-08-18T06:00:23.940Z,101602.22
2018-08-18T06:02:58.573Z,101604.76
2018-08-18T06:05:29.848Z,101604.14
2018-08-18T06:07:59.167Z,101603.92
2018-08-18T06:10:28.113Z,101600.37
2018-08-18T06:12:57.075Z,101599.23
2018-08-18T06:15:26.208Z,101602.55
2018-08-18T06:17:54.736Z,101601.06
2018-08-18T06:20:23.278Z,101592.95
2018-08-18T06:22:51.904Z,101595.81
2018-08-18T06:25:20.558Z,101601.65
2018-08-18T06:27:49.094Z,101598.82
2018-08-18T06:30:18.405Z,101607.72
2018-08-18T06:32:47.240Z,101606.64
2018-08-18T06:35:15.794Z,101600.75
2018-08-18T06:37:48.729Z,101603.23
2018-08-18T06:40:17.787Z,101602.64
2018-08-18T06:42:46.917Z,101610.24
2018-08-18T06:45:18.569Z,101610.03
2018-08-18T06:47:47.074Z,101606.73
2018-08-18T06:50:18.590Z,101605.30
2018-08-18T06:52:47.808Z,101605.66
2018-08-18T06:55:18.137Z,101613.81
2018-08-18T06:57:49.556Z,101612.79
2018-08-18T07:00:20.874Z,101614.84
2018-08-18T07:02:49.388Z,101615.11
2018-08-18T07:05:19.620Z,101614.20
2018-08-18T07:07:49.007Z,101613.08
2018-08-18T07:10:29.682Z,101613.29
2018-08-18T07:13:01.590Z,101606.65
2018-08-18T07:15:35.429Z,101607.01
2018-08-18T07:18:05.014Z,101610.38
2018-08-18T07:20:33.504Z,101614.56
2018-08-18T07:23:02.548Z,101606.20
2018-08-18T07:25:31.043Z,101613.52
2018-08-18T07:28:04.908Z,101616.39
2018-08-18T07:30:33.452Z,101613.53
2018-08-18T07:33:02.432Z,101616.76
2018-08-18T07:35:30.901Z,101609.46
2018-08-18T07:37:59.599Z,101608.28
2018-08-18T07:40:33.399Z,101608.53
2018-08-18T07:43:05.362Z,101608.94
2018-08-18T07:45:34.912Z,101611.91
2018-08-18T07:48:04.714Z,101606.52
2018-08-18T07:50:33.643Z,101607.20
2018-08-18T07:53:04.042Z,101605.31
2018-08-18T07:55:33.468Z,101610.78
2018-08-18T07:58:04.517Z,101608.58
2018-08-18T08:00:35.171Z,101612.50
2018-08-18T08:03:03.809Z,101610.36
2018-08-18T08:05:33.127Z,101610.05
2018-08-18T08:08:02.575Z,101610.99
2018-08-18T08:10:31.127Z,101608.23
2018-08-18T08:12:59.849Z,101609.52
2018-08-18T08:15:28.491Z,101608.61
2018-08-18T08:17:57.785Z,101600.91
2018-08-18T08:25:33.233Z,101599.86
2018-08-18T08:28:01.853Z,101602.80
2018-08-18T08:30:30.865Z,101607.30
2018-08-18T08:32:59.922Z,101607.10
2018-08-18T08:35:29.263Z,101605.44
2018-08-18T08:37:57.941Z,101605.77
2018-08-18T08:40:26.597Z,101610.50
2018-08-18T08:42:55.193Z,101610.29
2018-08-18T08:45:24.642Z,101612.99
2018-08-18T08:47:53.462Z,101610.78
2018-08-18T08:50:23.512Z,101611.86
2018-08-18T08:52:54.338Z,101609.03
2018-08-18T08:55:24.968Z,101600.94
2018-08-18T08:57:54.448Z,101602.53
2018-08-18T09:00:23.070Z,101601.96
2018-08-18T09:02:53.821Z,101599.75
2018-08-18T09:05:23.785Z,101593.97
2018-08-18T09:07:54.677Z,101599.54
2018-08-18T09:10:24.785Z,101602.28
2018-08-18T09:12:53.340Z,101596.67
2018-08-18T09:15:21.875Z,101598.42
2018-08-18T09:17:50.613Z,101602.17
2018-08-18T09:20:20.054Z,101600.91
2018-08-18T09:22:56.268Z,101600.03
2018-08-18T09:25:26.219Z,101592.19
2018-08-18T09:27:56.812Z,101593.47
2018-08-18T09:30:27.059Z,101597.80
2018-08-18T09:32:58.082Z,101601.47
2018-08-18T09:35:26.748Z,101593.71
2018-08-18T09:38:02.202Z,101593.80
2018-08-18T09:40:32.980Z,101593.94
2018-08-18T09:43:10.404Z,101599.86
2018-08-18T09:45:40.658Z,101595.09
2018-08-18T09:48:09.262Z,101595.04
2018-08-18T09:50:37.868Z,101597.67
2018-08-18T09:53:06.370Z,101600.88
2018-08-18T09:55:35.178Z,101605.73
2018-08-18T09:58:03.894Z,101603.06
2018-08-18T10:00:37.771Z,101591.92
2018-08-18T10:03:06.461Z,101598.94
2018-08-18T10:05:34.999Z,101588.70
2018-08-18T10:08:03.688Z,101596.18
2018-08-18T10:10:33.750Z,101595.00
2018-08-18T10:13:04.200Z,101599.98
2018-08-18T10:15:32.660Z,101595.13
2018-08-18T10:18:02.305Z,101591.33
2018-08-18T10:20:35.846Z,101585.81
2018-08-18T10:23:04.845Z,101587.66
2018-08-18T10:25:33.454Z,101584.31
2018-08-18T10:28:01.997Z,101582.84
2018-08-18T10:30:30.545Z,101582.83
2018-08-18T10:33:00.454Z,101581.25
2018-08-18T10:35:31.368Z,101580.03
2018-08-18T10:38:03.072Z,101576.83
2018-08-18T10:40:31.805Z,101580.80
2018-08-18T10:43:01.320Z,101594.99
2018-08-18T10:45:29.980Z,101577.47
2018-08-18T10:47:58.555Z,101579.44
2018-08-18T10:51:40.255Z,101570.82
2018-08-18T10:54:08.772Z,101575.73
2018-08-18T10:56:38.139Z,101580.93
2018-08-18T10:59:15.614Z,101573.80
2018-08-18T11:02:02.617Z,101573.30
2018-08-18T11:04:33.349Z,101572.08
2018-08-18T11:07:02.001Z,101579.05
2018-08-18T11:09:31.680Z,101569.50
2018-08-18T11:12:00.497Z,101579.41
2018-08-18T11:14:29.974Z,101578.92
2018-08-18T11:16:58.509Z,101577.22
2018-08-18T11:19:27.031Z,101579.19
2018-08-18T11:22:06.771Z,101572.87
2018-08-18T11:24:35.639Z,101566.35
2018-08-18T11:27:05.350Z,101563.57
2018-08-18T11:29:34.142Z,101565.97
2018-08-18T11:32:02.898Z,101559.42
2018-08-18T11:34:32.367Z,101564.61
2018-08-18T11:37:06.081Z,101562.59
2018-08-18T11:39:34.567Z,101565.33
2018-08-18T11:42:03.139Z,101559.30
2018-08-18T11:44:32.652Z,101553.23
2018-08-18T11:47:01.978Z,101556.97
2018-08-18T11:49:30.523Z,101558.05
2018-08-18T11:51:59.349Z,101561.49
2018-08-18T11:54:28.642Z,101555.72
2018-08-18T11:56:57.263Z,101556.41
2018-08-18T11:59:27.089Z,101554.52
2018-08-18T12:01:58.426Z,101559.73
2018-08-18T12:04:27.827Z,101545.32
2018-08-18T12:06:59.991Z,101544.38
2018-08-18T12:09:34.764Z,101538.84
2018-08-18T12:12:05.001Z,101536.59
2018-08-18T12:14:34.348Z,101537.28
2018-08-18T12:17:04.977Z,101521.69
2018-08-18T12:19:33.953Z,101530.74
2018-08-18T12:22:03.480Z,101527.66
2018-08-18T12:24:33.205Z,101518.95
2018-08-18T12:27:13.027Z,101532.02
2018-08-18T12:29:42.740Z,101523.23
2018-08-18T12:32:18.497Z,101511.75
2018-08-18T12:34:47.384Z,101511.23
2018-08-18T12:37:17.030Z,101500.41
2018-08-18T12:39:45.628Z,101509.51
2018-08-18T12:42:22.124Z,101508.19
2018-08-18T12:44:51.387Z,101509.39
2018-08-18T12:47:19.981Z,101508.50
2018-08-18T12:49:48.732Z,101508.52
2018-08-18T12:52:18.236Z,101510.61
2018-08-18T12:54:47.884Z,101503.41
2018-08-18T12:57:26.427Z,101499.98
2018-08-18T12:59:56.776Z,101495.75
2018-08-18T13:02:35.501Z,101496.12
2018-08-18T13:05:04.053Z,101502.39
2018-08-18T13:07:36.788Z,101505.13
2018-08-18T13:10:27.918Z,101488.48
2018-08-18T13:12:58.271Z,101481.95
2018-08-18T13:15:27.292Z,101480.25
2018-08-18T13:17:55.768Z,101477.39
2018-08-18T13:20:27.126Z,101472.34
2018-08-18T13:22:56.615Z,101473.08
2018-08-18T13:25:27.155Z,101469.94
2018-08-18T13:27:56.947Z,101471.47
2018-08-18T13:30:30.353Z,101467.30
2018-08-18T13:32:59.662Z,101461.36
2018-08-18T13:35:28.325Z,101461.07
2018-08-18T13:40:55.137Z,101465.25
2018-08-18T13:43:50.263Z,101452.11
2018-08-18T13:46:21.926Z,101448.99
2018-08-18T13:48:57.437Z,101448.05
2018-08-18T13:51:26.657Z,101454.75
2018-08-18T13:53:56.399Z,101456.33
2018-08-18T13:56:27.848Z,101453.70
2018-08-18T13:58:58.250Z,101454.84
2018-08-18T14:01:38.960Z,101453.61
2018-08-18T14:04:10.800Z,101443.94
2018-08-18T14:06:45.006Z,101444.52
2018-08-18T14:09:14.047Z,101447.97
2018-08-18T14:11:42.502Z,101447.52
2018-08-18T14:14:11.818Z,101444.72
2018-08-18T14:16:40.797Z,101452.47
2018-08-18T14:19:09.435Z,101444.51
2018-08-18T14:21:40.042Z,101442.06
2018-08-18T14:24:08.943Z,101435.98
2018-08-18T14:26:41.506Z,101433.72
2018-08-18T14:29:10.498Z,101429.42
2018-08-18T14:31:39.137Z,101439.41
2018-08-18T14:34:08.655Z,101430.39
2018-08-18T14:36:37.537Z,101425.31
2018-08-18T14:39:10.957Z,101436.19
2018-08-18T14:41:41.929Z,101433.55
2018-08-18T14:44:11.017Z,101438.10
2018-08-18T14:46:41.855Z,101433.16
2018-08-18T14:49:12.129Z,101431.94
2018-08-18T14:51:45.923Z,101423.61
2018-08-18T14:54:16.557Z,101428.19
2018-08-18T14:56:46.604Z,101426.35
2018-08-18T14:59:16.435Z,101425.41
2018-08-18T15:01:45.078Z,101430.31
2018-08-18T15:04:15.239Z,101417.67
2018-08-18T15:06:44.757Z,101420.92
2018-08-18T15:09:25.571Z,101421.78
2018-08-18T15:11:56.709Z,101419.09
2018-08-18T15:14:26.118Z,101420.20
2018-08-18T15:16:56.090Z,101425.80
2018-08-18T15:19:25.330Z,101422.59
2018-08-18T15:21:54.957Z,101423.53
2018-08-18T15:24:24.315Z,101419.05
2018-08-18T15:26:53.771Z,101409.10
2018-08-18T15:29:22.290Z,101422.32
2018-08-18T15:31:50.801Z,101422.23
2018-08-18T15:34:19.396Z,101419.38
2018-08-18T15:36:48.013Z,101420.16
2018-08-18T15:39:16.790Z,101426.94
2018-08-18T15:41:46.077Z,101415.55
2018-08-18T15:44:16.780Z,101417.09
2018-08-18T15:46:46.549Z,101417.98
2018-08-18T15:49:15.387Z,101411.41
2018-08-18T15:51:44.632Z,101412.47
2018-08-18T15:54:13.248Z,101418.05
2018-08-18T15:56:43.253Z,101417.50
2018-08-18T15:59:14.533Z,101416.33
2018-08-18T16:01:43.124Z,101416.86
2018-08-18T16:04:12.474Z,101409.99
2018-08-18T16:06:42.109Z,101407.77
2018-08-18T16:09:11.680Z,101402.39
2018-08-18T16:11:44.361Z,101404.95
2018-08-18T16:14:14.462Z,101404.13
2018-08-18T16:16:56.958Z,101408.20
2018-08-18T16:19:27.317Z,101403.24
2018-08-18T16:21:56.874Z,101405.05
2018-08-18T16:24:36.755Z,101405.25
2018-08-18T16:27:07.101Z,101412.16
2018-08-18T16:29:37.436Z,101413.39
2018-08-18T16:32:16.882Z,101408.65
2018-08-18T16:34:47.773Z,101411.47
2018-08-18T16:37:18.103Z,101405.66
2018-08-18T16:39:46.653Z,101412.52
2018-08-18T16:42:16.593Z,101410.25
2018-08-18T16:44:45.135Z,101407.20
2018-08-18T16:47:14.783Z,101410.96
2018-08-18T16:49:43.442Z,101415.30
2018-08-18T16:52:12.117Z,101409.96
2018-08-18T16:54:40.647Z,101414.36
2018-08-18T16:57:09.555Z,101407.63
2018-08-18T16:59:38.704Z,101410.70
2018-08-18T17:02:14.878Z,101414.17
2018-08-18T17:04:43.577Z,101411.53
2018-08-18T17:07:23.886Z,101415.84
2018-08-18T17:09:53.802Z,101414.89
2018-08-18T17:12:25.484Z,101418.06
2018-08-18T17:14:54.145Z,101420.20
2018-08-18T17:17:25.062Z,101424.78
2018-08-18T17:19:56.283Z,101425.60
2018-08-18T17:22:26.502Z,101429.02
2018-08-18T17:24:55.776Z,101425.94
2018-08-18T17:27:24.427Z,101429.06
2018-08-18T17:29:53.479Z,101434.33
2018-08-18T17:32:24.165Z,101444.11
2018-08-18T17:34:52.656Z,101437.23
2018-08-18T17:37:21.200Z,101442.35
2018-08-18T17:39:50.963Z,101448.94
2018-08-18T17:42:19.575Z,101458.66
2018-08-18T17:44:48.293Z,101452.21
2018-08-18T17:47:17.325Z,101455.18
2018-08-18T17:49:51.303Z,101461.53
2018-08-18T17:52:19.985Z,101461.64
2018-08-18T17:55:04.887Z,101465.19
2018-08-18T17:57:33.649Z,101467.03
2018-08-18T18:00:07.484Z,101465.48
2018-08-18T18:02:42.228Z,101468.50
2018-08-18T18:05:11.509Z,101469.92
2018-08-18T18:07:40.149Z,101475.34
2018-08-18T18:10:10.078Z,101472.54
2018-08-18T18:12:38.833Z,101470.45
2018-08-18T18:15:18.616Z,101473.63
2018-08-18T18:17:48.994Z,101476.42
2018-08-18T18:20:18.941Z,101481.11
2018-08-18T18:22:49.359Z,101484.11
2018-08-18T18:25:20.203Z,101485.28
2018-08-18T18:27:49.835Z,101485.86
2018-08-18T18:30:25.057Z,101489.56
2018-08-18T18:32:53.801Z,101486.13
2018-08-18T18:35:24.043Z,101488.52
2018-08-18T18:37:53.446Z,101492.92
2018-08-18T18:40:22.554Z,101491.36
2018-08-18T18:42:51.741Z,101492.12
2018-08-18T18:45:23.013Z,101497.92
2018-08-18T18:47:51.508Z,101502.84
2018-08-18T18:50:20.566Z,101505.16
2018-08-18T18:52:49.450Z,101506.16
2018-08-18T18:55:18.368Z,101506.77
2018-08-18T18:58:03.394Z,101508.23
2018-08-18T19:00:35.055Z,101508.43
2018-08-18T19:07:42.695Z,101506.55
2018-08-18T19:10:11.506Z,101503.73
2018-08-18T19:12:40.294Z,101511.47
2018-08-18T19:15:09.469Z,101520.74
2018-08-18T19:17:39.035Z,101516.29
2018-08-18T19:20:24.448Z,101522.99
2018-08-18T19:23:00.676Z,101525.09
2018-08-18T19:25:29.258Z,101525.55
2018-08-18T19:27:58.470Z,101523.53
2018-08-18T19:30:28.706Z,101530.09
2018-08-18T19:32:57.996Z,101525.89
2018-08-18T19:35:36.823Z,101529.65
2018-08-18T19:38:06.260Z,101527.76
2018-08-18T19:40:36.798Z,101534.56
2018-08-18T19:43:11.904Z,101532.27
2018-08-18T19:45:42.058Z,101539.95
2018-08-18T19:48:11.825Z,101538.95
2018-08-18T19:50:51.281Z,101541.33
2018-08-18T19:53:22.578Z,101542.45
2018-08-18T19:55:51.978Z,101546.56
2018-08-18T19:58:21.869Z,101544.66
2018-08-18T20:00:51.158Z,101552.84
2018-08-18T20:03:20.604Z,101549.94
2018-08-18T20:05:51.192Z,101551.05
2018-08-18T20:08:22.145Z,101545.20
2018-08-18T20:10:55.832Z,101546.06
2018-08-18T20:13:27.419Z,101548.45
2018-08-18T20:15:57.493Z,101542.03
2018-08-18T20:18:26.663Z,101545.41
2018-08-18T20:20:58.205Z,101542.05
2018-08-18T20:23:26.832Z,101549.98
2018-08-18T20:25:55.754Z,101547.87
2018-08-18T20:28:24.999Z,101544.11
2018-08-18T20:30:53.494Z,101549.89
2018-08-18T20:33:22.630Z,101541.58
2018-08-18T20:35:52.102Z,101549.69
2018-08-18T20:38:21.452Z,101549.85
2018-08-18T20:40:50.658Z,101553.50
2018-08-18T20:43:21.516Z,101557.27
2018-08-18T20:45:50.675Z,101557.42
2018-08-18T20:48:22.600Z,101559.88
2018-08-18T20:50:51.685Z,101563.03
2018-08-18T20:53:20.392Z,101562.45
2018-08-18T20:55:57.426Z,101564.27
2018-08-18T20:58:28.012Z,101571.88
2018-08-18T21:00:57.583Z,101566.92
2018-08-18T21:03:58.009Z,101563.07
2018-08-18T21:06:26.543Z,101567.33
2018-08-18T21:08:55.161Z,101571.50
2018-08-18T21:11:23.844Z,101568.03
2018-08-18T21:13:52.507Z,101571.09
2018-08-18T21:16:22.036Z,101576.05
2018-08-18T21:18:50.530Z,101582.38
2018-08-18T21:21:33.064Z,101578.95
2018-08-18T21:24:01.500Z,101584.58
2018-08-18T21:26:30.252Z,101590.50
2018-08-18T21:28:59.494Z,101599.21
2018-08-18T21:31:35.708Z,101599.66
2018-08-18T21:34:06.054Z,101599.25
2018-08-18T21:36:35.144Z,101599.63
2018-08-18T21:39:07.099Z,101604.60
2018-08-18T21:41:38.129Z,101601.05
2018-08-18T21:44:08.773Z,101596.30
2018-08-18T21:46:38.549Z,101599.37
2018-08-18T21:49:07.858Z,101603.00
2018-08-18T21:51:37.117Z,101614.78
2018-08-18T21:54:05.638Z,101617.13
2018-08-18T21:56:38.443Z,101618.59
2018-08-18T21:59:09.087Z,101618.63
2018-08-18T22:01:38.378Z,101618.75
2018-08-18T22:04:07.914Z,101615.34
2018-08-18T22:06:37.222Z,101620.20
2018-08-18T22:09:21.204Z,101626.81
2018-08-18T22:11:50.101Z,101619.61
2018-08-18T22:14:19.200Z,101622.92
2018-08-18T22:16:53.037Z,101625.17
2018-08-18T22:19:24.348Z,101628.00
2018-08-18T22:21:53.314Z,101626.34
2018-08-18T22:24:22.096Z,101625.63
2018-08-18T22:26:51.537Z,101625.08
2018-08-18T22:29:23.699Z,101622.88
2018-08-18T22:31:52.563Z,101624.52
2018-08-18T22:34:21.827Z,101622.73
2018-08-18T22:36:50.902Z,101613.47
2018-08-18T22:39:21.625Z,101622.66
2018-08-18T22:41:50.560Z,101618.43
2018-08-18T22:44:19.989Z,101620.20
2018-08-18T22:46:48.526Z,101620.52
2018-08-18T22:49:18.873Z,101619.87
2018-08-18T22:51:48.817Z,101618.49
2018-08-18T22:54:17.278Z,101619.21
2018-08-18T22:56:50.361Z,101622.00
2018-08-18T22:59:20.829Z,101620.35
2018-08-18T23:01:51.505Z,101624.10
2018-08-18T23:04:37.794Z,101621.59
2018-08-18T23:07:08.331Z,101622.03
2018-08-18T23:09:37.565Z,101620.25
2018-08-18T23:12:08.564Z,101623.27
2018-08-18T23:14:40.081Z,101615.33
2018-08-18T23:17:11.404Z,101614.47
2018-08-18T23:19:40.378Z,101621.34
2018-08-18T23:22:20.057Z,101626.33
2018-08-18T23:24:48.586Z,101617.73
2018-08-18T23:27:17.704Z,101620.83
2018-08-18T23:29:47.048Z,101619.14
2018-08-18T23:32:31.194Z,101622.09
2018-08-18T23:35:03.065Z,101618.37
2018-08-18T23:37:33.312Z,101618.63
2018-08-18T23:40:01.780Z,101617.45
2018-08-18T23:42:31.249Z,101622.65
2018-08-18T23:45:01.340Z,101620.92
2018-08-18T23:47:31.857Z,101623.51
2018-08-18T23:50:01.247Z,101615.70
2018-08-18T23:52:29.828Z,101618.63
2018-08-18T23:54:59.157Z,101619.46
2018-08-18T23:57:27.648Z,101621.11
2018-08-18T23:59:57.616Z,101625.48
